Time;durP1;ratioP1;P1;durP2;ratioP2;P2;SDS_P1;SDS_P2;PMS_P1;PMS_P2;Temp;Humidity;BMP_temperature;BMP_pressure;BME280_temperature;BME280_humidity;BME280_pressure;Samples;Min_cycle;Max_cycle;Signal;HPM_P1;HPM_P2
2021/12/24 00:00:18;;;;;;;0.57;0.57;;;6.40;99.90;;;;;;5038911;28;20133;-81
2021/12/24 00:02:43;;;;;;;0.75;0.75;;;6.40;99.90;;;;;;5039094;28;20082;-81
2021/12/24 00:05:10;;;;;;;8.48;0.68;;;6.40;99.90;;;;;;5055793;28;20579;-81
2021/12/24 00:07:35;;;;;;;2.60;0.25;;;6.40;99.90;;;;;;5054879;28;20538;-81
2021/12/24 00:10:01;;;;;;;2.72;1.00;;;6.50;99.90;;;;;;5038600;28;20044;-81
2021/12/24 00:12:31;;;;;;;1.00;0.90;;;6.50;99.90;;;;;;5055927;28;20508;-82
2021/12/24 00:15:02;;;;;;;1.15;0.63;;;6.50;99.90;;;;;;5056353;28;20063;-81
2021/12/24 00:17:31;;;;;;;0.35;0.22;;;6.60;99.90;;;;;;5072838;28;20052;-82
2021/12/24 00:20:12;;;;;;;2.95;1.08;;;6.60;99.90;;;;;;5055878;28;20139;-82
2021/12/24 00:36:18;;;;;;;3.72;0.32;;;6.70;99.90;;;;;;5077347;28;20052;-83
2021/12/24 00:38:44;;;;;;;0.85;0.20;;;6.80;99.90;;;;;;5060232;28;20139;-82
2021/12/24 00:41:10;;;;;;;0.57;0.30;;;6.80;99.90;;;;;;5076879;28;20072;-83
2021/12/24 00:43:36;;;;;;;0.85;0.55;;;6.80;99.90;;;;;;5059965;28;20461;-83
2021/12/24 00:46:01;;;;;;;0.10;0.00;;;6.80;99.90;;;;;;5077441;28;20078;-83
2021/12/24 00:48:27;;;;;;;0.40;0.40;;;7.00;99.90;;;;;;5060639;28;20484;-83
2021/12/24 00:56:04;;;;;;;0.20;0.20;;;7.00;99.90;;;;;;5076203;28;20444;-82
2021/12/24 00:58:30;;;;;;;2.42;0.55;;;6.90;99.90;;;;;;5076394;28;20051;-82
2021/12/24 01:00:56;;;;;;;0.77;0.70;;;7.00;99.90;;;;;;5059243;28;20060;-83
2021/12/24 01:03:22;;;;;;;0.80;0.20;;;7.00;99.90;;;;;;5076572;28;20040;-83
2021/12/24 01:05:48;;;;;;;2.80;0.65;;;7.00;99.90;;;;;;5059011;28;20052;-82
2021/12/24 01:08:14;;;;;;;0.45;0.43;;;7.00;99.90;;;;;;5059199;28;20059;-83
2021/12/24 01:10:44;;;;;;;2.67;0.25;;;7.00;99.90;;;;;;5075563;28;20127;-83
2021/12/24 01:13:10;;;;;;;0.15;0.13;;;7.00;99.90;;;;;;5076097;28;20052;-83
2021/12/24 01:15:42;;;;;;;0.45;0.45;;;7.10;99.90;;;;;;5076812;28;20142;-81
2021/12/24 01:18:28;;;;;;;1.35;0.43;;;7.10;99.90;;;;;;5059907;28;20056;-82
2021/12/24 01:21:08;;;;;;;1.00;0.45;;;7.10;99.90;;;;;;5059489;28;20048;-81
2021/12/24 01:23:56;;;;;;;4.75;1.45;;;7.10;99.90;;;;;;5058892;28;20056;-81
2021/12/24 01:26:47;;;;;;;0.13;0.08;;;7.20;99.90;;;;;;5075951;28;20081;-81
2021/12/24 01:45:25;;;;;;;0.20;0.00;;;7.30;99.90;;;;;;5076572;28;20060;-82
2021/12/24 01:47:55;;;;;;;0.65;0.25;;;7.30;99.90;;;;;;5075461;28;20041;-82
2021/12/24 01:50:22;;;;;;;0.30;0.30;;;7.30;99.90;;;;;;5075183;28;20040;-83
2021/12/24 01:52:50;;;;;;;0.10;0.10;;;7.30;99.90;;;;;;5075493;28;20048;-82
2021/12/24 01:55:17;;;;;;;1.08;0.30;;;7.40;99.90;;;;;;5074649;28;20080;-83
2021/12/24 01:57:44;;;;;;;0.65;0.40;;;7.40;99.90;;;;;;5075313;28;20074;-82
2021/12/24 02:00:13;;;;;;;0.30;0.20;;;7.40;99.90;;;;;;5075281;28;20414;-82
2021/12/24 02:02:39;;;;;;;0.28;0.20;;;7.40;99.90;;;;;;5075189;28;20048;-82
2021/12/24 02:05:06;;;;;;;0.80;0.43;;;7.50;99.90;;;;;;5074851;28;20535;-82
2021/12/24 02:07:32;;;;;;;2.50;0.20;;;7.50;99.90;;;;;;5075148;28;20037;-82
2021/12/24 02:09:57;;;;;;;0.55;0.10;;;7.50;99.90;;;;;;5075454;28;20135;-82
2021/12/24 02:12:25;;;;;;;0.20;0.20;;;7.50;99.90;;;;;;5075632;28;20041;-82
2021/12/24 02:14:54;;;;;;;0.98;0.05;;;7.50;99.90;;;;;;5058153;28;20408;-82
2021/12/24 02:28:22;;;;;;;2.30;0.40;;;7.70;99.90;;;;;;5075574;28;20152;-82
2021/12/24 02:30:48;;;;;;;0.25;0.25;;;7.70;99.90;;;;;;5057905;28;20052;-82
2021/12/24 02:33:14;;;;;;;1.17;0.35;;;7.70;99.90;;;;;;5058405;28;20060;-82
2021/12/24 02:35:40;;;;;;;0.10;0.05;;;7.70;99.90;;;;;;5058264;28;20399;-82
2021/12/24 02:38:08;;;;;;;0.45;0.30;;;7.70;99.90;;;;;;5058944;28;20068;-82
2021/12/24 02:40:34;;;;;;;0.10;0.05;;;7.80;99.90;;;;;;5075015;28;20045;-82
2021/12/24 02:43:01;;;;;;;0.05;0.05;;;7.80;99.90;;;;;;5074478;28;20044;-82
2021/12/24 02:45:30;;;;;;;0.10;0.10;;;7.80;99.90;;;;;;5074593;28;20067;-82
2021/12/24 02:55:34;;;;;;;0.45;0.45;;;7.90;99.90;;;;;;5074178;28;20053;-82
2021/12/24 02:58:00;;;;;;;0.00;0.00;;;7.90;99.90;;;;;;5074702;28;20039;-82
2021/12/24 03:00:27;;;;;;;0.00;0.00;;;8.00;99.90;;;;;;5075077;28;20186;-82
2021/12/24 03:02:55;;;;;;;0.22;0.10;;;7.90;99.90;;;;;;5074974;28;20257;-82
2021/12/24 03:05:23;;;;;;;0.00;0.00;;;7.90;99.90;;;;;;5058250;28;20473;-82
2021/12/24 03:07:49;;;;;;;0.95;0.20;;;7.90;99.90;;;;;;5058124;28;20052;-82
2021/12/24 03:10:17;;;;;;;0.00;0.00;;;7.90;99.90;;;;;;5058135;28;20105;-82
2021/12/24 03:12:46;;;;;;;0.00;0.00;;;7.90;99.90;;;;;;5074665;28;20044;-82
2021/12/24 03:15:15;;;;;;;0.00;0.00;;;8.00;99.90;;;;;;5057328;28;20052;-82
2021/12/24 03:17:49;;;;;;;0.15;0.15;;;8.00;99.90;;;;;;5074297;28;20036;-82
2021/12/24 03:20:15;;;;;;;0.20;0.10;;;8.00;99.90;;;;;;5075175;28;20049;-82
2021/12/24 03:22:50;;;;;;;0.15;0.10;;;8.00;99.90;;;;;;5074304;28;20430;-82
2021/12/24 03:25:16;;;;;;;0.00;0.00;;;8.00;99.90;;;;;;5074440;28;20522;-82
2021/12/24 03:27:42;;;;;;;0.00;0.00;;;8.00;99.90;;;;;;5074418;28;20049;-83
2021/12/24 03:30:10;;;;;;;0.00;0.00;;;8.10;99.90;;;;;;5057476;28;20558;-82
2021/12/24 03:32:36;;;;;;;0.10;0.10;;;8.00;99.90;;;;;;5057807;28;20056;-82
2021/12/24 03:35:02;;;;;;;0.00;0.00;;;8.10;99.90;;;;;;5057453;28;20096;-82
2021/12/24 03:37:28;;;;;;;0.00;0.00;;;8.10;99.90;;;;;;5074109;28;20094;-82
2021/12/24 03:39:54;;;;;;;0.00;0.00;;;8.10;99.90;;;;;;5074593;28;20044;-82
2021/12/24 03:42:19;;;;;;;0.40;0.03;;;8.10;99.90;;;;;;5073985;28;20384;-82
2021/12/24 03:44:53;;;;;;;0.00;0.00;;;8.10;99.90;;;;;;5074039;28;20033;-82
2021/12/24 03:47:20;;;;;;;0.00;0.00;;;8.10;99.90;;;;;;5074002;28;20045;-82
2021/12/24 03:54:56;;;;;;;0.15;0.10;;;8.10;99.90;;;;;;5073463;28;20056;-82
2021/12/24 03:57:26;;;;;;;0.08;0.08;;;8.10;99.90;;;;;;5057243;28;20052;-82
2021/12/24 03:59:52;;;;;;;0.00;0.00;;;8.10;99.90;;;;;;5073756;28;20048;-82
2021/12/24 04:02:18;;;;;;;0.10;0.00;;;8.10;99.90;;;;;;5057595;28;20110;-81
2021/12/24 04:04:44;;;;;;;0.30;0.30;;;8.20;99.90;;;;;;5073976;28;20048;-81
2021/12/24 04:07:09;;;;;;;0.08;0.00;;;8.20;99.90;;;;;;5056797;28;20048;-81
2021/12/24 04:09:37;;;;;;;0.20;0.17;;;8.30;99.90;;;;;;5056901;28;20041;-81
2021/12/24 04:12:03;;;;;;;0.00;0.00;;;8.20;99.90;;;;;;5073574;28;20131;-81
2021/12/24 04:14:29;;;;;;;2.08;0.10;;;8.20;99.90;;;;;;5056850;28;20048;-81
2021/12/24 04:16:55;;;;;;;0.00;0.00;;;8.30;99.90;;;;;;5056462;28;20094;-81
2021/12/24 04:27:17;;;;;;;0.17;0.17;;;8.30;99.90;;;;;;5073592;28;20066;-81
2021/12/24 04:29:42;;;;;;;0.70;0.28;;;8.30;99.90;;;;;;5056640;28;20061;-81
2021/12/24 04:32:21;;;;;;;0.03;0.00;;;8.30;99.90;;;;;;5056431;28;20052;-81
2021/12/24 04:34:50;;;;;;;0.93;0.22;;;8.40;99.90;;;;;;5056508;28;20095;-81
2021/12/24 04:51:14;;;;;;;0.00;0.00;;;8.30;99.90;;;;;;5072149;28;20082;-81
2021/12/24 05:04:37;;;;;;;1.17;0.43;;;8.40;99.90;;;;;;5073032;28;20444;-81
2021/12/24 05:07:27;;;;;;;0.40;0.10;;;8.40;99.90;;;;;;5073345;28;20094;-81
2021/12/24 05:09:52;;;;;;;0.10;0.03;;;8.40;99.90;;;;;;5072967;28;20044;-81
2021/12/24 05:12:18;;;;;;;0.30;0.20;;;8.40;99.90;;;;;;5072899;28;20044;-81
2021/12/24 05:14:44;;;;;;;1.33;0.57;;;8.40;99.90;;;;;;5072760;28;20076;-81
2021/12/24 05:17:26;;;;;;;0.40;0.40;;;8.30;99.90;;;;;;5073503;28;20086;-81
2021/12/24 05:22:36;;;;;;;1.40;0.93;;;8.30;99.90;;;;;;5075222;28;20053;-82
2021/12/24 05:25:02;;;;;;;0.60;0.08;;;8.30;99.90;;;;;;5076457;28;20059;-81
2021/12/24 05:27:28;;;;;;;0.45;0.45;;;8.40;99.90;;;;;;5075526;28;20065;-81
2021/12/24 05:29:54;;;;;;;1.23;0.95;;;8.30;99.90;;;;;;5075774;28;20388;-81
2021/12/24 05:32:21;;;;;;;0.20;0.20;;;8.30;99.90;;;;;;5075640;28;20045;-81
2021/12/24 05:34:46;;;;;;;0.20;0.20;;;8.30;99.90;;;;;;5058990;28;20052;-81
2021/12/24 05:37:12;;;;;;;0.00;0.00;;;8.30;99.90;;;;;;5075321;28;20113;-81
2021/12/24 05:39:38;;;;;;;15.45;1.45;;;8.30;99.90;;;;;;5076480;28;20045;-81
2021/12/24 05:42:05;;;;;;;1.00;0.40;;;8.30;99.90;;;;;;5076323;28;20559;-81
2021/12/24 05:44:32;;;;;;;2.03;1.23;;;8.30;99.90;;;;;;5059345;28;20056;-81
2021/12/24 05:46:59;;;;;;;0.20;0.20;;;8.30;99.90;;;;;;5059665;28;20055;-81
2021/12/24 05:49:25;;;;;;;3.72;0.30;;;8.30;99.90;;;;;;5076067;28;20040;-81
2021/12/24 05:51:50;;;;;;;0.10;0.10;;;8.30;99.90;;;;;;5075859;28;20048;-81
2021/12/24 05:54:16;;;;;;;0.80;0.55;;;8.30;99.90;;;;;;5075908;28;20043;-80
2021/12/24 05:56:42;;;;;;;7.80;1.63;;;8.30;99.90;;;;;;5058806;28;20057;-80
2021/12/24 05:59:08;;;;;;;0.20;0.20;;;8.30;99.90;;;;;;5075977;28;20057;-80
2021/12/24 06:01:34;;;;;;;0.10;0.08;;;8.40;99.90;;;;;;5076291;28;20083;-80
2021/12/24 06:04:00;;;;;;;0.32;0.32;;;8.30;99.90;;;;;;5059321;28;20056;-80
2021/12/24 06:06:26;;;;;;;0.20;0.20;;;8.30;99.90;;;;;;5075686;28;20052;-80
2021/12/24 06:08:51;;;;;;;0.55;0.35;;;8.30;99.90;;;;;;5059308;28;20048;-81
2021/12/24 06:11:17;;;;;;;0.50;0.35;;;8.30;99.90;;;;;;5075361;28;20059;-80
2021/12/24 06:13:44;;;;;;;0.32;0.10;;;8.30;99.90;;;;;;5058746;28;20052;-81
2021/12/24 06:16:10;;;;;;;0.40;0.40;;;8.30;99.90;;;;;;5058681;28;20480;-80
2021/12/24 06:18:39;;;;;;;8.13;1.30;;;8.30;99.90;;;;;;5058723;28;20102;-80
2021/12/24 06:21:05;;;;;;;0.52;0.43;;;8.30;99.90;;;;;;5075762;28;20053;-80
2021/12/24 06:23:33;;;;;;;0.00;0.00;;;8.30;99.90;;;;;;5075669;28;20048;-80
2021/12/24 06:25:59;;;;;;;0.60;0.60;;;8.30;99.90;;;;;;5058837;28;20048;-80
2021/12/24 06:28:26;;;;;;;3.08;0.50;;;8.30;99.90;;;;;;5074468;28;20389;-80
2021/12/24 06:30:53;;;;;;;0.32;0.32;;;8.40;99.90;;;;;;5058383;28;20496;-80
2021/12/24 06:33:19;;;;;;;0.77;0.77;;;8.30;99.90;;;;;;5074792;28;20056;-81
2021/12/24 06:35:46;;;;;;;1.92;0.20;;;8.30;99.90;;;;;;5058245;28;20048;-81
2021/12/24 06:38:12;;;;;;;0.25;0.25;;;8.30;99.90;;;;;;5058299;28;20078;-81
2021/12/24 06:40:38;;;;;;;0.08;0.08;;;8.30;99.90;;;;;;5058646;28;20068;-81
2021/12/24 06:43:04;;;;;;;0.32;0.17;;;8.30;99.90;;;;;;5074824;28;20055;-80
2021/12/24 06:45:30;;;;;;;0.08;0.03;;;8.40;99.90;;;;;;5074479;28;20556;-80
2021/12/24 06:47:58;;;;;;;0.55;0.45;;;8.30;99.90;;;;;;5074225;28;20388;-81
2021/12/24 06:50:24;;;;;;;0.05;0.05;;;8.30;99.90;;;;;;5057407;28;20036;-81
2021/12/24 06:52:50;;;;;;;0.10;0.10;;;8.30;99.90;;;;;;5074662;28;20049;-80
2021/12/24 06:55:18;;;;;;;0.10;0.10;;;8.20;99.90;;;;;;5074614;28;20102;-80
2021/12/24 06:57:44;;;;;;;3.90;0.75;;;8.30;99.90;;;;;;5074871;28;20045;-80
2021/12/24 07:00:15;;;;;;;0.20;0.00;;;8.20;99.90;;;;;;5074759;28;20044;-80
2021/12/24 07:02:41;;;;;;;0.38;0.38;;;8.30;99.90;;;;;;5057557;28;20499;-80
2021/12/24 07:05:07;;;;;;;0.63;0.38;;;8.30;99.90;;;;;;5073580;28;20051;-80
2021/12/24 07:07:33;;;;;;;5.80;0.40;;;8.30;99.90;;;;;;5074628;28;20044;-80
2021/12/24 07:09:58;;;;;;;0.00;0.00;;;8.30;99.90;;;;;;5074169;28;20441;-80
2021/12/24 07:12:24;;;;;;;0.32;0.30;;;8.30;99.90;;;;;;5074485;28;20097;-81
2021/12/24 07:14:50;;;;;;;0.63;0.30;;;8.30;99.90;;;;;;5074057;28;20045;-80
2021/12/24 07:17:16;;;;;;;0.73;0.52;;;8.30;99.90;;;;;;5073903;28;20041;-80
2021/12/24 07:19:41;;;;;;;0.00;0.00;;;8.30;99.90;;;;;;5057338;28;20053;-81
2021/12/24 07:22:07;;;;;;;0.00;0.00;;;8.30;99.90;;;;;;5074568;28;20093;-80
2021/12/24 07:24:34;;;;;;;0.95;0.10;;;8.30;99.90;;;;;;5057919;28;20454;-81
2021/12/24 07:27:01;;;;;;;0.00;0.00;;;8.30;99.90;;;;;;5057284;28;20131;-80
2021/12/24 07:29:27;;;;;;;0.20;0.00;;;8.30;99.90;;;;;;5057104;28;20048;-80
2021/12/24 07:31:53;;;;;;;0.38;0.20;;;8.20;99.90;;;;;;5074041;28;20087;-79
2021/12/24 07:34:19;;;;;;;1.00;0.80;;;8.20;99.90;;;;;;5073931;28;20041;-80
2021/12/24 07:36:45;;;;;;;0.00;0.00;;;8.20;99.90;;;;;;5073520;28;20404;-79
2021/12/24 07:39:10;;;;;;;0.03;0.00;;;8.20;99.90;;;;;;5073916;28;20044;-79
2021/12/24 07:41:36;;;;;;;0.95;0.95;;;8.20;99.90;;;;;;5073188;28;20048;-79
2021/12/24 07:44:03;;;;;;;0.73;0.20;;;8.20;99.90;;;;;;5056652;28;20044;-79
2021/12/24 07:46:36;;;;;;;0.00;0.00;;;8.20;99.90;;;;;;5057045;28;20075;-79
2021/12/24 07:49:17;;;;;;;0.38;0.32;;;8.20;99.90;;;;;;5056649;28;20084;-79
2021/12/24 07:54:27;;;;;;;0.50;0.40;;;8.30;99.90;;;;;;5073073;28;20040;-80
2021/12/24 07:56:55;;;;;;;0.05;0.05;;;8.20;99.90;;;;;;5056303;28;20135;-80
2021/12/24 07:59:21;;;;;;;0.15;0.10;;;8.20;99.90;;;;;;5074048;28;20399;-81
2021/12/24 08:01:47;;;;;;;0.65;0.45;;;8.20;99.90;;;;;;5073306;28;20041;-80
2021/12/24 08:04:14;;;;;;;0.15;0.15;;;8.20;99.90;;;;;;5073271;28;20052;-79
2021/12/24 08:06:40;;;;;;;0.00;0.00;;;8.20;99.90;;;;;;5073132;28;20526;-80
2021/12/24 08:09:07;;;;;;;1.25;0.68;;;8.20;99.90;;;;;;5056021;28;20057;-80
2021/12/24 08:11:36;;;;;;;0.00;0.00;;;8.20;99.90;;;;;;5073324;28;20518;-79
2021/12/24 08:14:05;;;;;;;0.30;0.00;;;8.10;99.90;;;;;;5056417;28;20117;-79
2021/12/24 08:16:31;;;;;;;0.10;0.10;;;8.10;99.90;;;;;;5056540;28;20049;-80
2021/12/24 08:18:58;;;;;;;0.05;0.05;;;8.10;99.90;;;;;;5073639;28;20049;-81
2021/12/24 08:21:24;;;;;;;0.45;0.20;;;8.10;99.90;;;;;;5071701;28;20130;-83
2021/12/24 08:23:50;;;;;;;0.22;0.22;;;8.20;99.90;;;;;;5060023;28;20045;-82
2021/12/24 08:26:17;;;;;;;1.83;0.17;;;8.20;99.90;;;;;;5065250;28;20515;-82
2021/12/24 08:28:43;;;;;;;0.10;0.10;;;8.20;99.90;;;;;;5062354;28;20114;-82
2021/12/24 08:31:09;;;;;;;0.10;0.10;;;8.10;99.90;;;;;;5062685;28;20506;-82
2021/12/24 08:33:35;;;;;;;1.83;1.17;;;8.10;99.90;;;;;;5043282;28;20079;-81
2021/12/24 08:36:06;;;;;;;7.50;0.43;;;8.20;99.90;;;;;;5045609;28;20457;-86
2021/12/24 08:38:32;;;;;;;0.00;0.00;;;8.20;99.90;;;;;;5045720;28;20045;-85
2021/12/24 08:40:58;;;;;;;0.32;0.32;;;8.20;99.90;;;;;;5062133;28;20048;-84
2021/12/24 08:43:24;;;;;;;1.55;0.90;;;8.20;99.90;;;;;;5061764;28;20465;-85
2021/12/24 08:45:50;;;;;;;2.63;0.60;;;8.20;99.90;;;;;;5061341;28;20060;-85
2021/12/24 08:48:16;;;;;;;0.05;0.00;;;8.20;99.90;;;;;;5037649;28;20088;-81
2021/12/24 08:50:42;;;;;;;0.00;0.00;;;8.20;99.90;;;;;;5052404;28;20134;-81
2021/12/24 08:53:08;;;;;;;0.03;0.03;;;8.10;99.90;;;;;;5056130;28;20454;-81
2021/12/24 08:55:35;;;;;;;0.35;0.20;;;8.20;99.90;;;;;;5056481;28;20060;-81
2021/12/24 08:58:02;;;;;;;0.00;0.00;;;8.20;99.90;;;;;;5056570;28;20049;-81
2021/12/24 09:00:29;;;;;;;0.25;0.10;;;8.20;99.90;;;;;;5039613;28;20084;-81
2021/12/24 09:02:56;;;;;;;1.13;0.75;;;8.10;99.90;;;;;;5056329;28;20045;-81
2021/12/24 09:05:22;;;;;;;1.95;0.93;;;8.20;99.90;;;;;;5056226;28;20052;-81
2021/12/24 09:07:48;;;;;;;0.00;0.00;;;8.20;99.90;;;;;;5056535;28;20044;-81
2021/12/24 09:10:14;;;;;;;0.25;0.25;;;8.20;99.90;;;;;;5056287;28;20045;-81
2021/12/24 09:12:42;;;;;;;0.68;0.68;;;8.20;99.90;;;;;;5039735;28;20071;-82
2021/12/24 09:15:09;;;;;;;0.60;0.60;;;8.20;99.90;;;;;;5055943;28;20047;-84
2021/12/24 09:17:35;;;;;;;0.10;0.10;;;8.20;99.90;;;;;;5055558;28;20404;-81
2021/12/24 09:20:01;;;;;;;1.25;1.10;;;8.20;99.90;;;;;;5061086;28;20063;-82
2021/12/24 09:22:33;;;;;;;0.88;0.25;;;8.20;99.90;;;;;;5058936;28;20048;-82
2021/12/24 09:24:58;;;;;;;10.82;2.08;;;8.30;99.90;;;;;;5075782;28;20063;-85
2021/12/24 09:27:25;;;;;;;1.95;0.20;;;8.20;99.90;;;;;;5059183;28;20512;-84
2021/12/24 09:29:51;;;;;;;0.10;0.10;;;8.20;99.90;;;;;;5058148;28;20099;-85
2021/12/24 09:32:17;;;;;;;0.13;0.10;;;8.30;99.90;;;;;;5069302;28;20045;-85
2021/12/24 09:34:42;;;;;;;0.05;0.05;;;8.30;99.90;;;;;;5055522;28;20053;-85
2021/12/24 09:37:08;;;;;;;0.00;0.00;;;8.30;99.90;;;;;;5055478;28;20041;-85
2021/12/24 09:39:34;;;;;;;0.68;0.68;;;8.30;99.90;;;;;;5055817;28;20131;-85
2021/12/24 09:42:01;;;;;;;0.80;0.80;;;8.40;99.90;;;;;;5039222;28;20490;-86
2021/12/24 09:44:28;;;;;;;4.57;0.80;;;8.30;99.90;;;;;;5038972;28;20186;-88
2021/12/24 09:46:54;;;;;;;0.15;0.15;;;8.40;99.90;;;;;;5038834;28;20064;-89
2021/12/24 09:49:20;;;;;;;0.75;0.65;;;8.40;99.90;;;;;;5055453;28;20045;-86
2021/12/24 09:51:51;;;;;;;0.63;0.47;;;8.40;99.90;;;;;;5038933;28;20072;-87
2021/12/24 09:54:22;;;;;;;0.32;0.20;;;8.40;99.90;;;;;;5038829;28;20094;-84
2021/12/24 09:56:49;;;;;;;0.03;0.03;;;8.60;99.90;;;;;;5038354;28;20144;-87
2021/12/24 09:59:15;;;;;;;0.03;0.03;;;8.40;99.90;;;;;;5055011;28;20049;-86
2021/12/24 10:01:43;;;;;;;2.40;0.40;;;8.50;99.90;;;;;;5038630;28;20053;-93
2021/12/24 10:04:12;;;;;;;0.08;0.00;;;8.40;99.90;;;;;;5058008;28;20060;-87
2021/12/24 10:06:39;;;;;;;0.00;0.00;;;8.50;99.90;;;;;;5076442;28;20414;-90
2021/12/24 10:09:08;;;;;;;0.00;0.00;;;8.40;99.90;;;;;;5058692;28;20086;-88
2021/12/24 10:11:51;;;;;;;2.00;0.00;;;8.50;99.90;;;;;;5058311;28;20044;-89
2021/12/24 10:14:20;;;;;;;0.20;0.20;;;8.50;99.90;;;;;;5058551;28;20142;-91
2021/12/24 10:16:49;;;;;;;0.17;0.10;;;8.60;99.90;;;;;;5075015;28;20040;-91
2021/12/24 10:19:15;;;;;;;0.00;0.00;;;8.70;99.90;;;;;;5059206;28;20056;-91
2021/12/24 10:21:42;;;;;;;0.22;0.20;;;8.50;99.90;;;;;;5058396;28;20151;-90
2021/12/24 10:24:08;;;;;;;0.00;0.00;;;8.50;99.90;;;;;;5058053;28;20056;-88
2021/12/24 10:26:48;;;;;;;0.00;0.00;;;8.70;99.90;;;;;;5075096;28;20056;-89
2021/12/24 10:29:20;;;;;;;0.10;0.10;;;8.50;99.90;;;;;;5058572;28;20052;-87
2021/12/24 10:31:49;;;;;;;0.45;0.45;;;8.50;99.90;;;;;;5058079;28;20127;-89
2021/12/24 10:34:26;;;;;;;0.00;0.00;;;8.80;99.90;;;;;;5074377;28;20048;-89
2021/12/24 10:37:03;;;;;;;0.00;0.00;;;8.50;99.90;;;;;;5058390;28;20091;-87
2021/12/24 10:39:44;;;;;;;0.10;0.10;;;8.50;99.90;;;;;;5074525;28;20055;-87
2021/12/24 10:42:25;;;;;;;0.00;0.00;;;8.50;99.90;;;;;;5074429;28;20058;-90
2021/12/24 10:44:53;;;;;;;0.00;0.00;;;8.50;99.90;;;;;;5058250;28;20107;-87
2021/12/24 10:47:20;;;;;;;1.10;0.40;;;8.70;99.90;;;;;;5057756;28;20140;-86
2021/12/24 10:49:58;;;;;;;0.00;0.00;;;8.50;99.90;;;;;;5073756;28;20578;-85
2021/12/24 10:52:42;;;;;;;0.22;0.13;;;8.50;99.90;;;;;;5074198;28;20526;-84
2021/12/24 10:55:11;;;;;;;0.17;0.10;;;8.60;99.90;;;;;;5056645;28;20059;-84
2021/12/24 10:57:40;;;;;;;0.00;0.00;;;8.60;99.90;;;;;;5057715;28;20139;-84
2021/12/24 11:00:20;;;;;;;0.20;0.10;;;8.60;99.90;;;;;;5074118;28;20056;-83
2021/12/24 11:03:00;;;;;;;0.10;0.10;;;8.60;99.90;;;;;;5057994;28;20068;-84
2021/12/24 11:05:34;;;;;;;0.88;0.65;;;8.60;99.90;;;;;;5058104;28;20057;-84
2021/12/24 11:08:04;;;;;;;0.00;0.00;;;8.60;99.90;;;;;;5074112;28;20048;-84
2021/12/24 11:10:33;;;;;;;0.20;0.20;;;8.60;99.90;;;;;;5037540;28;20081;-84
2021/12/24 11:13:12;;;;;;;0.35;0.00;;;8.60;99.90;;;;;;5037240;28;20127;-84
2021/12/24 11:15:40;;;;;;;0.00;0.00;;;8.60;99.90;;;;;;5037156;28;20480;-83
2021/12/24 11:18:13;;;;;;;0.55;0.50;;;8.60;99.90;;;;;;5037693;28;20053;-84
2021/12/24 11:20:38;;;;;;;0.22;0.22;;;8.70;99.90;;;;;;5053566;28;20057;-84
2021/12/24 11:23:16;;;;;;;0.20;0.20;;;8.60;99.90;;;;;;5054000;28;20098;-84
2021/12/24 11:25:45;;;;;;;0.20;0.20;;;8.60;99.90;;;;;;5054400;28;20080;-84
2021/12/24 11:28:13;;;;;;;0.00;0.00;;;8.60;99.90;;;;;;5054015;28;20056;-84
2021/12/24 11:30:46;;;;;;;0.63;0.63;;;8.60;99.90;;;;;;5037364;28;20045;-83
2021/12/24 11:33:16;;;;;;;1.00;0.65;;;8.80;99.90;;;;;;5037302;28;20053;-83
2021/12/24 11:35:44;;;;;;;0.00;0.00;;;8.60;99.90;;;;;;5038176;28;20173;-84
2021/12/24 11:38:21;;;;;;;0.00;0.00;;;8.70;99.90;;;;;;5053927;28;20593;-83
2021/12/24 11:40:48;;;;;;;0.10;0.08;;;8.50;99.90;;;;;;5037098;28;20378;-87
2021/12/24 11:43:15;;;;;;;0.47;0.47;;;8.50;99.90;;;;;;5037775;28;20547;-87
2021/12/24 11:45:41;;;;;;;0.20;0.08;;;8.60;99.90;;;;;;5039228;28;20080;-94
2021/12/24 11:48:07;;;;;;;0.00;0.00;;;8.70;99.90;;;;;;5058235;28;20052;-92
2021/12/24 11:50:35;;;;;;;0.40;0.40;;;8.60;99.90;;;;;;5057413;28;20051;-92
2021/12/24 11:53:05;;;;;;;0.38;0.30;;;8.60;99.90;;;;;;5057474;28;20048;-93
2021/12/24 11:55:40;;;;;;;0.00;0.00;;;8.70;99.90;;;;;;5074131;28;20049;-93
2021/12/24 11:58:15;;;;;;;0.00;0.00;;;8.60;99.90;;;;;;5056937;28;20088;-89
2021/12/24 12:00:43;;;;;;;0.00;0.00;;;8.90;99.90;;;;;;5056283;28;20506;-87
2021/12/24 12:03:28;;;;;;;0.10;0.05;;;8.60;99.90;;;;;;5072973;28;20113;-85
2021/12/24 12:05:54;;;;;;;0.38;0.38;;;8.40;99.90;;;;;;5056374;28;20051;-84
2021/12/24 12:08:23;;;;;;;0.88;0.65;;;9.40;99.90;;;;;;5069555;28;20061;-84
2021/12/24 12:10:54;;;;;;;0.08;0.08;;;8.50;99.90;;;;;;5052346;28;20503;-85
2021/12/24 12:13:49;;;;;;;0.00;0.00;;;8.50;99.90;;;;;;5035944;28;20084;-86
2021/12/24 12:16:18;;;;;;;0.00;0.00;;;8.50;99.90;;;;;;5036730;28;20053;-87
2021/12/24 12:18:49;;;;;;;0.00;0.00;;;8.60;99.90;;;;;;5052627;28;20064;-82
2021/12/24 12:21:34;;;;;;;0.00;0.00;;;8.00;99.90;;;;;;5036044;28;20036;-88
2021/12/24 12:26:39;;;;;;;0.32;0.10;;;7.60;99.90;;;;;;5051587;28;20057;-89
2021/12/24 12:29:31;;;;;;;0.00;0.00;;;7.40;99.90;;;;;;5036069;28;20052;-85
2021/12/24 12:32:26;;;;;;;0.00;0.00;;;7.40;99.90;;;;;;5052640;28;20083;-85
2021/12/24 12:34:57;;;;;;;0.00;0.00;;;7.30;99.90;;;;;;5036650;28;20400;-86
2021/12/24 12:37:30;;;;;;;0.00;0.00;;;7.30;99.90;;;;;;5037558;28;20138;-87
2021/12/24 12:40:16;;;;;;;0.00;0.00;;;7.20;99.90;;;;;;5037201;28;20049;-86
2021/12/24 12:42:58;;;;;;;0.00;0.00;;;7.20;99.90;;;;;;5035139;28;20071;-88
2021/12/24 12:45:33;;;;;;;0.00;0.00;;;7.20;99.90;;;;;;5037283;28;20056;-87
2021/12/24 12:48:00;;;;;;;;;;;8.30;99.90;;;;;;5038626;28;20053;-87
2021/12/24 12:50:28;;;;;;;0.00;0.00;;;7.30;99.90;;;;;;5052581;28;19927;-88
2021/12/24 12:53:22;;;;;;;0.00;0.00;;;7.80;99.90;;;;;;5037636;28;20049;-87
2021/12/24 12:56:08;;;;;;;0.00;0.00;;;7.10;99.90;;;;;;5037048;28;20144;-89
2021/12/24 12:58:34;;;;;;;0.00;0.00;;;7.10;99.90;;;;;;5039678;28;20052;-89
2021/12/24 13:01:04;;;;;;;0.00;0.00;;;7.20;99.90;;;;;;5054975;28;20048;-88
2021/12/24 13:03:31;;;;;;;0.00;0.00;;;7.20;99.90;;;;;;5057085;28;20060;-87
2021/12/24 13:06:05;;;;;;;0.00;0.00;;;7.20;99.90;;;;;;5056567;28;20060;-88
2021/12/24 13:08:34;;;;;;;0.00;0.00;;;7.10;99.90;;;;;;5056708;28;20053;-87
2021/12/24 13:11:16;;;;;;;0.00;0.00;;;7.20;99.90;;;;;;5056568;28;20542;-87
2021/12/24 13:14:01;;;;;;;0.00;0.00;;;7.20;99.90;;;;;;5057379;28;20049;-87
2021/12/24 13:16:38;;;;;;;0.00;0.00;;;7.30;99.90;;;;;;5057383;28;20419;-87
2021/12/24 13:25:06;;;;;;;0.00;0.00;;;7.40;99.90;;;;;;5035013;28;20083;-86
2021/12/24 13:27:37;;;;;;;0.00;0.00;;;7.20;99.90;;;;;;5018622;28;20136;-86
2021/12/24 13:30:22;;;;;;;0.00;0.00;;;7.40;99.90;;;;;;5034958;28;20497;-86
2021/12/24 13:32:53;;;;;;;0.00;0.00;;;6.80;99.90;;;;;;5035106;28;20516;-86
2021/12/24 13:35:41;;;;;;;0.00;0.00;;;7.10;99.90;;;;;;5035678;28;20045;-86
2021/12/24 13:38:16;;;;;;;0.00;0.00;;;7.10;99.90;;;;;;5019491;28;20049;-85
2021/12/24 13:40:43;;;;;;;0.10;0.05;;;7.10;99.90;;;;;;5038340;28;20098;-85
2021/12/24 13:43:13;;;;;;;0.00;0.00;;;7.30;99.90;;;;;;5037944;28;20080;-85
2021/12/24 13:45:41;;;;;;;0.22;0.00;;;7.10;99.90;;;;;;5038296;28;20520;-85
2021/12/24 13:48:25;;;;;;;0.15;0.10;;;7.00;99.90;;;;;;5038861;28;20051;-86
2021/12/24 13:56:45;;;;;;;0.00;0.00;;;7.00;99.90;;;;;;5037563;28;20397;-86
2021/12/24 13:59:19;;;;;;;0.10;0.00;;;7.00;99.90;;;;;;5055169;28;20109;-86
2021/12/24 14:01:44;;;;;;;0.00;0.00;;;7.00;99.90;;;;;;5039880;28;20049;-86
2021/12/24 14:04:11;;;;;;;0.00;0.00;;;7.00;99.90;;;;;;5039894;28;20052;-86
2021/12/24 14:06:39;;;;;;;0.00;0.00;;;6.90;99.90;;;;;;5039351;28;20052;-86
2021/12/24 14:09:11;;;;;;;0.00;0.00;;;6.90;99.90;;;;;;5044469;28;20048;-86
2021/12/24 14:11:37;;;;;;;0.00;0.00;;;6.90;99.90;;;;;;5055836;28;20048;-86
2021/12/24 14:14:09;;;;;;;0.00;0.00;;;7.00;99.90;;;;;;5072478;28;20047;-87
2021/12/24 14:16:53;;;;;;;0.00;0.00;;;6.90;99.90;;;;;;5039194;28;20373;-86
2021/12/24 14:19:30;;;;;;;0.00;0.00;;;7.00;99.90;;;;;;5038030;28;20052;-86
2021/12/24 14:22:17;;;;;;;0.00;0.00;;;7.00;99.90;;;;;;5038138;28;20053;-86
2021/12/24 14:25:07;;;;;;;0.00;0.00;;;7.10;99.90;;;;;;5037863;28;20044;-85
2021/12/24 14:27:35;;;;;;;0.00;0.00;;;6.90;99.90;;;;;;5038306;28;20041;-86
2021/12/24 14:30:04;;;;;;;0.00;0.00;;;7.00;99.90;;;;;;5038358;28;20053;-86
2021/12/24 14:32:50;;;;;;;11.02;0.10;;;6.90;99.90;;;;;;5038152;28;20040;-86
2021/12/24 14:35:20;;;;;;;0.00;0.00;;;7.20;99.90;;;;;;5056510;28;20048;-85
2021/12/24 14:38:17;;;;;;;0.00;0.00;;;7.10;99.90;;;;;;5038502;28;20044;-86
2021/12/24 14:40:43;;;;;;;0.05;0.00;;;6.90;99.90;;;;;;5038925;28;20045;-86
2021/12/24 14:43:15;;;;;;;0.88;0.08;;;6.90;99.90;;;;;;5038582;28;20051;-85
2021/12/24 14:45:44;;;;;;;0.00;0.00;;;6.90;99.90;;;;;;5038858;28;20396;-85
2021/12/24 14:48:17;;;;;;;0.00;0.00;;;7.00;99.90;;;;;;5038731;28;20052;-86
2021/12/24 14:51:04;;;;;;;0.10;0.10;;;7.00;99.90;;;;;;5053790;28;20052;-86
2021/12/24 14:53:38;;;;;;;0.00;0.00;;;6.80;99.90;;;;;;5038276;28;20053;-86
2021/12/24 14:56:07;;;;;;;0.00;0.00;;;6.80;99.90;;;;;;5037394;28;20052;-87
2021/12/24 14:58:50;;;;;;;0.00;0.00;;;6.70;99.90;;;;;;5037514;28;20079;-84
2021/12/24 15:01:17;;;;;;;0.00;0.00;;;6.70;99.90;;;;;;5037717;28;20060;-84